sensor_id;sensor_type;location;lat;lon;timestamp;P1;durP1;ratioP1;P2;durP2;ratioP2
1136;SDS011;557;48.466;7.950;2024-03-23T00:54:06;6.67;;;6.17;;
1136;SDS011;557;48.466;7.950;2024-03-23T00:56:32;6.60;;;6.00;;
1136;SDS011;557;48.466;7.950;2024-03-23T00:58:59;7.80;;;6.30;;
1136;SDS011;557;48.466;7.950;2024-03-23T01:01:25;7.20;;;6.50;;
1136;SDS011;557;48.466;7.950;2024-03-23T01:03:52;6.50;;;6.00;;
1136;SDS011;557;48.466;7.950;2024-03-23T01:06:17;6.77;;;6.17;;
1136;SDS011;557;48.466;7.950;2024-03-23T01:08:44;7.10;;;6.53;;
1136;SDS011;557;48.466;7.950;2024-03-23T01:11:12;6.90;;;6.30;;
1136;SDS011;557;48.466;7.950;2024-03-23T01:13:38;6.60;;;6.10;;
1136;SDS011;557;48.466;7.950;2024-03-23T01:16:04;7.17;;;6.57;;
1136;SDS011;557;48.466;7.950;2024-03-23T01:18:31;6.33;;;5.90;;
1136;SDS011;557;48.466;7.950;2024-03-23T01:20:59;6.50;;;6.00;;
1136;SDS011;557;48.466;7.950;2024-03-23T01:23:26;6.30;;;5.83;;
1136;SDS011;557;48.466;7.950;2024-03-23T01:25:52;6.93;;;6.40;;
1136;SDS011;557;48.466;7.950;2024-03-23T01:28:20;6.87;;;6.37;;
1136;SDS011;557;48.466;7.950;2024-03-23T01:30:47;6.40;;;5.90;;
1136;SDS011;557;48.466;7.950;2024-03-23T01:33:14;7.40;;;6.47;;
1136;SDS011;557;48.466;7.950;2024-03-23T01:35:41;8.10;;;7.40;;
1136;SDS011;557;48.466;7.950;2024-03-23T01:38:07;7.17;;;6.57;;
1136;SDS011;557;48.466;7.950;2024-03-23T01:40:33;6.53;;;5.93;;
1136;SDS011;557;48.466;7.950;2024-03-23T01:43:03;6.87;;;6.27;;
1136;SDS011;557;48.466;7.950;2024-03-23T01:45:31;6.80;;;6.20;;
1136;SDS011;557;48.466;7.950;2024-03-23T01:47:58;6.90;;;6.30;;
1136;SDS011;557;48.466;7.950;2024-03-23T01:50:34;6.90;;;6.30;;
1136;SDS011;557;48.466;7.950;2024-03-23T01:53:01;6.77;;;5.87;;
1136;SDS011;557;48.466;7.950;2024-03-23T01:55:28;6.73;;;6.03;;
1136;SDS011;557;48.466;7.950;2024-03-23T01:57:56;7.30;;;6.70;;
1136;SDS011;557;48.466;7.950;2024-03-23T02:00:22;7.20;;;6.60;;
1136;SDS011;557;48.466;7.950;2024-03-23T02:02:51;7.00;;;6.40;;
1136;SDS011;557;48.466;7.950;2024-03-23T02:05:17;6.30;;;5.80;;
1136;SDS011;557;48.466;7.950;2024-03-23T02:07:44;7.00;;;6.30;;
1136;SDS011;557;48.466;7.950;2024-03-23T02:10:10;7.13;;;6.53;;
1136;SDS011;557;48.466;7.950;2024-03-23T02:12:38;6.93;;;6.37;;
1136;SDS011;557;48.466;7.950;2024-03-23T02:15:04;6.60;;;6.10;;
1136;SDS011;557;48.466;7.950;2024-03-23T02:17:33;6.77;;;6.17;;
1136;SDS011;557;48.466;7.950;2024-03-23T02:20:01;6.97;;;6.37;;
1136;SDS011;557;48.466;7.950;2024-03-23T02:22:35;6.47;;;5.90;;
1136;SDS011;557;48.466;7.950;2024-03-23T02:25:03;6.30;;;5.80;;
1136;SDS011;557;48.466;7.950;2024-03-23T02:27:30;6.77;;;6.17;;
1136;SDS011;557;48.466;7.950;2024-03-23T02:29:56;6.73;;;6.20;;
1136;SDS011;557;48.466;7.950;2024-03-23T02:32:23;6.30;;;5.70;;
1136;SDS011;557;48.466;7.950;2024-03-23T02:34:49;6.20;;;5.80;;
1136;SDS011;557;48.466;7.950;2024-03-23T02:37:16;6.30;;;5.70;;
1136;SDS011;557;48.466;7.950;2024-03-23T02:39:42;6.20;;;5.70;;
1136;SDS011;557;48.466;7.950;2024-03-23T02:42:10;6.43;;;5.73;;
1136;SDS011;557;48.466;7.950;2024-03-23T02:44:36;6.87;;;5.77;;
1136;SDS011;557;48.466;7.950;2024-03-23T02:47:03;7.17;;;6.47;;
1136;SDS011;557;48.466;7.950;2024-03-23T02:52:05;6.00;;;5.50;;
1136;SDS011;557;48.466;7.950;2024-03-23T02:54:31;6.10;;;5.60;;
1136;SDS011;557;48.466;7.950;2024-03-23T02:56:58;7.10;;;5.70;;
1136;SDS011;557;48.466;7.950;2024-03-23T02:59:25;5.93;;;5.43;;
1136;SDS011;557;48.466;7.950;2024-03-23T03:01:52;5.90;;;5.40;;
1136;SDS011;557;48.466;7.950;2024-03-23T03:04:18;7.47;;;4.60;;
1136;SDS011;557;48.466;7.950;2024-03-23T03:06:46;5.77;;;5.00;;
1136;SDS011;557;48.466;7.950;2024-03-23T03:09:12;6.30;;;5.07;;
1136;SDS011;557;48.466;7.950;2024-03-23T03:11:39;5.97;;;5.37;;
1136;SDS011;557;48.466;7.950;2024-03-23T03:14:05;5.93;;;4.90;;
1136;SDS011;557;48.466;7.950;2024-03-23T03:16:34;5.20;;;4.70;;
1136;SDS011;557;48.466;7.950;2024-03-23T03:19:00;5.07;;;4.67;;
1136;SDS011;557;48.466;7.950;2024-03-23T03:21:27;7.63;;;4.50;;
1136;SDS011;557;48.466;7.950;2024-03-23T03:23:53;5.30;;;4.80;;
1136;SDS011;557;48.466;7.950;2024-03-23T03:26:21;7.53;;;5.50;;
1136;SDS011;557;48.466;7.950;2024-03-23T03:28:47;5.23;;;4.70;;
1136;SDS011;557;48.466;7.950;2024-03-23T03:31:14;6.13;;;5.40;;
1136;SDS011;557;48.466;7.950;2024-03-23T03:33:43;7.90;;;5.23;;
1136;SDS011;557;48.466;7.950;2024-03-23T03:36:10;5.90;;;5.30;;
1136;SDS011;557;48.466;7.950;2024-03-23T03:38:36;5.93;;;5.43;;
1136;SDS011;557;48.466;7.950;2024-03-23T03:41:03;6.83;;;6.20;;
1136;SDS011;557;48.466;7.950;2024-03-23T03:43:31;5.97;;;5.37;;
1136;SDS011;557;48.466;7.950;2024-03-23T03:45:58;7.00;;;5.67;;
1136;SDS011;557;48.466;7.950;2024-03-23T03:48:26;5.87;;;5.37;;
1136;SDS011;557;48.466;7.950;2024-03-23T03:50:54;5.90;;;5.30;;
1136;SDS011;557;48.466;7.950;2024-03-23T03:53:20;8.13;;;6.00;;
1136;SDS011;557;48.466;7.950;2024-03-23T03:55:47;7.30;;;4.60;;
1136;SDS011;557;48.466;7.950;2024-03-23T03:58:13;5.20;;;4.50;;
1136;SDS011;557;48.466;7.950;2024-03-23T04:00:43;5.27;;;4.77;;
1136;SDS011;557;48.466;7.950;2024-03-23T04:03:09;8.60;;;4.97;;
1136;SDS011;557;48.466;7.950;2024-03-23T04:05:36;5.40;;;4.90;;
1136;SDS011;557;48.466;7.950;2024-03-23T04:08:05;6.90;;;5.70;;
1136;SDS011;557;48.466;7.950;2024-03-23T04:10:34;7.70;;;5.47;;
1136;SDS011;557;48.466;7.950;2024-03-23T04:12:59;6.93;;;5.30;;
1136;SDS011;557;48.466;7.950;2024-03-23T04:15:29;6.70;;;5.73;;
1136;SDS011;557;48.466;7.950;2024-03-23T04:17:55;7.17;;;5.00;;
1136;SDS011;557;48.466;7.950;2024-03-23T04:20:22;7.13;;;6.07;;
1136;SDS011;557;48.466;7.950;2024-03-23T04:22:48;8.00;;;6.00;;
1136;SDS011;557;48.466;7.950;2024-03-23T04:25:16;7.33;;;6.40;;
1136;SDS011;557;48.466;7.950;2024-03-23T04:27:44;9.80;;;7.60;;
1136;SDS011;557;48.466;7.950;2024-03-23T04:30:12;9.00;;;7.40;;
1136;SDS011;557;48.466;7.950;2024-03-23T04:32:38;14.73;;;11.37;;
1136;SDS011;557;48.466;7.950;2024-03-23T04:35:05;14.70;;;10.67;;
1136;SDS011;557;48.466;7.950;2024-03-23T04:37:31;19.50;;;14.77;;
1136;SDS011;557;48.466;7.950;2024-03-23T04:39:59;23.03;;;17.20;;
1136;SDS011;557;48.466;7.950;2024-03-23T04:42:28;27.83;;;19.50;;
1136;SDS011;557;48.466;7.950;2024-03-23T04:44:55;27.43;;;19.47;;
1136;SDS011;557;48.466;7.950;2024-03-23T04:47:22;24.77;;;18.87;;
1136;SDS011;557;48.466;7.950;2024-03-23T04:49:50;26.10;;;18.33;;
1136;SDS011;557;48.466;7.950;2024-03-23T04:52:17;27.60;;;19.47;;
1136;SDS011;557;48.466;7.950;2024-03-23T04:54:44;24.13;;;16.80;;
1136;SDS011;557;48.466;7.950;2024-03-23T04:57:10;24.83;;;17.00;;
1136;SDS011;557;48.466;7.950;2024-03-23T04:59:39;26.97;;;16.53;;
1136;SDS011;557;48.466;7.950;2024-03-23T05:02:05;24.93;;;16.97;;
1136;SDS011;557;48.466;7.950;2024-03-23T05:04:32;24.13;;;16.70;;
1136;SDS011;557;48.466;7.950;2024-03-23T05:06:58;25.30;;;16.47;;
1136;SDS011;557;48.466;7.950;2024-03-23T05:09:25;23.30;;;16.03;;
1136;SDS011;557;48.466;7.950;2024-03-23T05:11:55;21.70;;;15.10;;
1136;SDS011;557;48.466;7.950;2024-03-23T05:14:22;21.47;;;15.67;;
1136;SDS011;557;48.466;7.950;2024-03-23T05:16:51;22.03;;;15.20;;
1136;SDS011;557;48.466;7.950;2024-03-23T05:19:18;23.03;;;15.00;;
1136;SDS011;557;48.466;7.950;2024-03-23T05:21:44;22.10;;;12.67;;
1136;SDS011;557;48.466;7.950;2024-03-23T05:24:11;15.80;;;11.20;;
1136;SDS011;557;48.466;7.950;2024-03-23T05:26:37;15.93;;;9.40;;
1136;SDS011;557;48.466;7.950;2024-03-23T05:29:05;9.30;;;6.67;;
1136;SDS011;557;48.466;7.950;2024-03-23T05:31:35;8.47;;;5.17;;
1136;SDS011;557;48.466;7.950;2024-03-23T05:34:04;6.50;;;4.60;;
1136;SDS011;557;48.466;7.950;2024-03-23T05:36:30;4.00;;;3.00;;
1136;SDS011;557;48.466;7.950;2024-03-23T05:38:57;5.43;;;3.77;;
1136;SDS011;557;48.466;7.950;2024-03-23T05:41:23;4.83;;;3.27;;
1136;SDS011;557;48.466;7.950;2024-03-23T05:43:50;3.60;;;2.87;;
1136;SDS011;557;48.466;7.950;2024-03-23T05:46:16;3.73;;;2.37;;
1136;SDS011;557;48.466;7.950;2024-03-23T05:48:43;3.70;;;2.33;;
1136;SDS011;557;48.466;7.950;2024-03-23T05:51:10;2.53;;;1.73;;
1136;SDS011;557;48.466;7.950;2024-03-23T05:53:38;2.43;;;1.70;;
1136;SDS011;557;48.466;7.950;2024-03-23T05:56:04;2.70;;;1.70;;
1136;SDS011;557;48.466;7.950;2024-03-23T05:58:31;1.40;;;1.10;;
1136;SDS011;557;48.466;7.950;2024-03-23T06:00:57;2.30;;;1.03;;
1136;SDS011;557;48.466;7.950;2024-03-23T06:03:25;1.23;;;0.80;;
1136;SDS011;557;48.466;7.950;2024-03-23T06:05:51;1.87;;;1.30;;
1136;SDS011;557;48.466;7.950;2024-03-23T06:08:20;2.47;;;1.67;;
1136;SDS011;557;48.466;7.950;2024-03-23T06:10:46;1.20;;;0.90;;
1136;SDS011;557;48.466;7.950;2024-03-23T06:13:13;2.60;;;1.30;;
1136;SDS011;557;48.466;7.950;2024-03-23T06:15:39;1.70;;;1.13;;
1136;SDS011;557;48.466;7.950;2024-03-23T06:18:06;1.43;;;1.00;;
1136;SDS011;557;48.466;7.950;2024-03-23T06:20:33;1.30;;;0.93;;
1136;SDS011;557;48.466;7.950;2024-03-23T06:22:59;1.77;;;1.20;;
1136;SDS011;557;48.466;7.950;2024-03-23T06:25:27;2.30;;;1.20;;
1136;SDS011;557;48.466;7.950;2024-03-23T06:27:54;1.67;;;0.90;;
1136;SDS011;557;48.466;7.950;2024-03-23T06:30:19;1.73;;;1.10;;
1136;SDS011;557;48.466;7.950;2024-03-23T06:32:47;1.70;;;1.10;;
1136;SDS011;557;48.466;7.950;2024-03-23T06:35:12;1.87;;;1.37;;
1136;SDS011;557;48.466;7.950;2024-03-23T06:37:39;3.37;;;2.00;;
1136;SDS011;557;48.466;7.950;2024-03-23T06:40:06;2.27;;;1.60;;
1136;SDS011;557;48.466;7.950;2024-03-23T06:42:36;2.07;;;1.50;;
1136;SDS011;557;48.466;7.950;2024-03-23T06:45:02;2.27;;;1.40;;
1136;SDS011;557;48.466;7.950;2024-03-23T06:47:30;2.60;;;1.60;;
1136;SDS011;557;48.466;7.950;2024-03-23T06:49:56;1.93;;;1.40;;
1136;SDS011;557;48.466;7.950;2024-03-23T06:52:23;2.77;;;1.60;;
1136;SDS011;557;48.466;7.950;2024-03-23T06:54:49;2.13;;;1.47;;
1136;SDS011;557;48.466;7.950;2024-03-23T06:57:15;2.30;;;1.50;;
1136;SDS011;557;48.466;7.950;2024-03-23T06:59:43;2.73;;;1.77;;
1136;SDS011;557;48.466;7.950;2024-03-23T07:02:09;2.00;;;1.40;;
1136;SDS011;557;48.466;7.950;2024-03-23T07:04:35;2.50;;;1.50;;
1136;SDS011;557;48.466;7.950;2024-03-23T07:07:04;3.67;;;1.60;;
1136;SDS011;557;48.466;7.950;2024-03-23T07:09:30;2.50;;;1.70;;
1136;SDS011;557;48.466;7.950;2024-03-23T07:11:57;1.83;;;1.47;;
1136;SDS011;557;48.466;7.950;2024-03-23T07:14:23;2.60;;;1.60;;
1136;SDS011;557;48.466;7.950;2024-03-23T07:16:52;2.43;;;1.57;;
1136;SDS011;557;48.466;7.950;2024-03-23T07:19:18;2.30;;;1.50;;
1136;SDS011;557;48.466;7.950;2024-03-23T07:21:45;2.60;;;1.80;;
1136;SDS011;557;48.466;7.950;2024-03-23T07:24:11;3.23;;;1.83;;
1136;SDS011;557;48.466;7.950;2024-03-23T07:26:38;2.97;;;2.03;;
1136;SDS011;557;48.466;7.950;2024-03-23T07:29:04;2.10;;;1.90;;
1136;SDS011;557;48.466;7.950;2024-03-23T07:31:30;4.53;;;1.60;;
1136;SDS011;557;48.466;7.950;2024-03-23T07:33:58;3.00;;;2.13;;
1136;SDS011;557;48.466;7.950;2024-03-23T07:36:25;3.23;;;2.53;;
1136;SDS011;557;48.466;7.950;2024-03-23T07:38:51;2.67;;;2.17;;
1136;SDS011;557;48.466;7.950;2024-03-23T07:41:18;2.60;;;2.40;;
1136;SDS011;557;48.466;7.950;2024-03-23T07:43:45;3.27;;;2.80;;
1136;SDS011;557;48.466;7.950;2024-03-23T07:46:15;4.37;;;3.53;;
1136;SDS011;557;48.466;7.950;2024-03-23T07:48:41;4.13;;;3.00;;
1136;SDS011;557;48.466;7.950;2024-03-23T07:51:10;8.60;;;4.50;;
1136;SDS011;557;48.466;7.950;2024-03-23T07:53:43;3.70;;;3.40;;
1136;SDS011;557;48.466;7.950;2024-03-23T07:56:11;4.30;;;3.50;;
1136;SDS011;557;48.466;7.950;2024-03-23T07:58:37;5.33;;;3.30;;
1136;SDS011;557;48.466;7.950;2024-03-23T08:01:04;4.23;;;3.60;;
1136;SDS011;557;48.466;7.950;2024-03-23T08:03:33;5.00;;;4.00;;
1136;SDS011;557;48.466;7.950;2024-03-23T08:06:06;4.10;;;3.47;;
1136;SDS011;557;48.466;7.950;2024-03-23T08:08:34;4.43;;;4.13;;
1136;SDS011;557;48.466;7.950;2024-03-23T08:11:01;5.43;;;3.90;;
1136;SDS011;557;48.466;7.950;2024-03-23T08:13:28;5.03;;;4.50;;
1136;SDS011;557;48.466;7.950;2024-03-23T08:15:58;6.83;;;5.17;;
1136;SDS011;557;48.466;7.950;2024-03-23T08:18:25;6.27;;;4.73;;
1136;SDS011;557;48.466;7.950;2024-03-23T08:20:55;6.80;;;6.10;;
1136;SDS011;557;48.466;7.950;2024-03-23T08:23:22;7.90;;;5.77;;
1136;SDS011;557;48.466;7.950;2024-03-23T08:25:51;9.23;;;7.80;;
1136;SDS011;557;48.466;7.950;2024-03-23T08:28:17;9.97;;;7.83;;
1136;SDS011;557;48.466;7.950;2024-03-23T08:30:44;8.37;;;7.67;;
1136;SDS011;557;48.466;7.950;2024-03-23T08:33:09;9.30;;;8.37;;
1136;SDS011;557;48.466;7.950;2024-03-23T08:35:36;9.50;;;8.60;;
1136;SDS011;557;48.466;7.950;2024-03-23T08:38:03;8.90;;;8.00;;
1136;SDS011;557;48.466;7.950;2024-03-23T08:40:30;9.27;;;8.13;;
1136;SDS011;557;48.466;7.950;2024-03-23T08:42:57;11.67;;;8.67;;
1136;SDS011;557;48.466;7.950;2024-03-23T08:45:24;9.17;;;8.43;;
1136;SDS011;557;48.466;7.950;2024-03-23T08:47:50;10.53;;;9.37;;
1136;SDS011;557;48.466;7.950;2024-03-23T08:50:19;9.77;;;8.80;;
1136;SDS011;557;48.466;7.950;2024-03-23T08:52:44;8.80;;;7.90;;
1136;SDS011;557;48.466;7.950;2024-03-23T08:55:11;9.80;;;8.90;;
1136;SDS011;557;48.466;7.950;2024-03-23T08:57:38;10.17;;;8.40;;
1136;SDS011;557;48.466;7.950;2024-03-23T09:00:07;9.50;;;8.53;;
1136;SDS011;557;48.466;7.950;2024-03-23T09:02:36;14.30;;;8.50;;
1136;SDS011;557;48.466;7.950;2024-03-23T09:05:03;10.93;;;7.80;;
1136;SDS011;557;48.466;7.950;2024-03-23T09:07:30;11.90;;;8.30;;
1136;SDS011;557;48.466;7.950;2024-03-23T09:09:57;10.23;;;8.67;;
1136;SDS011;557;48.466;7.950;2024-03-23T09:12:23;10.00;;;9.10;;
1136;SDS011;557;48.466;7.950;2024-03-23T09:14:50;9.60;;;8.87;;
1136;SDS011;557;48.466;7.950;2024-03-23T09:17:17;10.43;;;9.33;;
1136;SDS011;557;48.466;7.950;2024-03-23T09:19:44;14.27;;;9.13;;
1136;SDS011;557;48.466;7.950;2024-03-23T09:22:10;10.63;;;9.73;;
1136;SDS011;557;48.466;7.950;2024-03-23T09:24:40;11.07;;;9.80;;
1136;SDS011;557;48.466;7.950;2024-03-23T09:27:07;11.63;;;9.40;;
1136;SDS011;557;48.466;7.950;2024-03-23T09:29:34;11.93;;;10.13;;
1136;SDS011;557;48.466;7.950;2024-03-23T09:32:00;11.27;;;9.80;;
1136;SDS011;557;48.466;7.950;2024-03-23T09:34:28;11.17;;;10.07;;
1136;SDS011;557;48.466;7.950;2024-03-23T09:36:54;15.60;;;9.80;;
1136;SDS011;557;48.466;7.950;2024-03-23T09:39:21;10.37;;;9.50;;
1136;SDS011;557;48.466;7.950;2024-03-23T09:41:46;10.30;;;9.50;;
1136;SDS011;557;48.466;7.950;2024-03-23T09:44:13;14.00;;;9.73;;
1136;SDS011;557;48.466;7.950;2024-03-23T09:46:40;11.80;;;9.93;;
1136;SDS011;557;48.466;7.950;2024-03-23T09:49:07;10.50;;;9.70;;
1136;SDS011;557;48.466;7.950;2024-03-23T09:51:36;11.27;;;10.10;;
1136;SDS011;557;48.466;7.950;2024-03-23T09:54:03;10.53;;;9.60;;
1136;SDS011;557;48.466;7.950;2024-03-23T09:56:29;9.50;;;8.83;;
1136;SDS011;557;48.466;7.950;2024-03-23T09:59:02;9.37;;;7.80;;
1136;SDS011;557;48.466;7.950;2024-03-23T10:01:29;7.73;;;6.97;;
1136;SDS011;557;48.466;7.950;2024-03-23T10:03:56;6.23;;;5.30;;
1136;SDS011;557;48.466;7.950;2024-03-23T10:06:23;6.50;;;6.00;;
1136;SDS011;557;48.466;7.950;2024-03-23T10:09:00;6.80;;;5.17;;
1136;SDS011;557;48.466;7.950;2024-03-23T10:11:30;5.67;;;4.90;;
1136;SDS011;557;48.466;7.950;2024-03-23T10:13:57;6.70;;;5.03;;
1136;SDS011;557;48.466;7.950;2024-03-23T10:16:23;5.10;;;4.60;;
1136;SDS011;557;48.466;7.950;2024-03-23T10:18:53;8.60;;;5.10;;
1136;SDS011;557;48.466;7.950;2024-03-23T10:21:23;8.23;;;4.00;;
1136;SDS011;557;48.466;7.950;2024-03-23T10:23:50;12.20;;;5.20;;
1136;SDS011;557;48.466;7.950;2024-03-23T10:26:18;7.23;;;3.83;;
1136;SDS011;557;48.466;7.950;2024-03-23T10:28:55;8.13;;;4.40;;
1136;SDS011;557;48.466;7.950;2024-03-23T10:31:26;4.40;;;3.70;;
1136;SDS011;557;48.466;7.950;2024-03-23T10:33:53;10.43;;;7.17;;
1136;SDS011;557;48.466;7.950;2024-03-23T10:36:22;5.63;;;4.10;;
1136;SDS011;557;48.466;7.950;2024-03-23T10:38:51;5.77;;;4.00;;
1136;SDS011;557;48.466;7.950;2024-03-23T10:41:19;4.90;;;3.50;;
1136;SDS011;557;48.466;7.950;2024-03-23T10:43:46;8.10;;;4.70;;
1136;SDS011;557;48.466;7.950;2024-03-23T10:46:13;8.30;;;4.43;;
1136;SDS011;557;48.466;7.950;2024-03-23T10:48:40;5.20;;;3.00;;
1136;SDS011;557;48.466;7.950;2024-03-23T10:51:08;9.17;;;3.67;;
1136;SDS011;557;48.466;7.950;2024-03-23T10:53:36;7.93;;;3.30;;
1136;SDS011;557;48.466;7.950;2024-03-23T10:56:02;6.53;;;3.53;;
1136;SDS011;557;48.466;7.950;2024-03-23T10:58:33;5.00;;;3.17;;
1136;SDS011;557;48.466;7.950;2024-03-23T11:01:03;7.90;;;3.30;;
1136;SDS011;557;48.466;7.950;2024-03-23T11:03:30;6.50;;;2.60;;
1136;SDS011;557;48.466;7.950;2024-03-23T11:05:58;5.80;;;2.73;;
1136;SDS011;557;48.466;7.950;2024-03-23T11:08:29;8.47;;;3.10;;
1136;SDS011;557;48.466;7.950;2024-03-23T11:11:11;3.70;;;2.60;;
1136;SDS011;557;48.466;7.950;2024-03-23T11:13:40;7.90;;;3.03;;
1136;SDS011;557;48.466;7.950;2024-03-23T11:16:15;4.87;;;3.13;;
1136;SDS011;557;48.466;7.950;2024-03-23T11:18:43;4.97;;;2.90;;
1136;SDS011;557;48.466;7.950;2024-03-23T11:21:09;6.30;;;3.30;;
1136;SDS011;557;48.466;7.950;2024-03-23T11:23:37;5.53;;;2.50;;
1136;SDS011;557;48.466;7.950;2024-03-23T11:26:06;4.70;;;3.07;;
1136;SDS011;557;48.466;7.950;2024-03-23T11:28:34;4.90;;;2.77;;
1136;SDS011;557;48.466;7.950;2024-03-23T11:31:01;4.73;;;3.03;;
1136;SDS011;557;48.466;7.950;2024-03-23T11:33:35;4.53;;;2.80;;
1136;SDS011;557;48.466;7.950;2024-03-23T11:36:00;5.23;;;3.17;;
1136;SDS011;557;48.466;7.950;2024-03-23T11:38:27;4.40;;;2.70;;
1136;SDS011;557;48.466;7.950;2024-03-23T11:40:53;8.00;;;3.23;;
1136;SDS011;557;48.466;7.950;2024-03-23T11:43:20;4.60;;;2.40;;
1136;SDS011;557;48.466;7.950;2024-03-23T11:45:47;6.27;;;3.10;;
1136;SDS011;557;48.466;7.950;2024-03-23T11:48:19;8.90;;;3.37;;
1136;SDS011;557;48.466;7.950;2024-03-23T11:50:46;6.03;;;2.70;;
1136;SDS011;557;48.466;7.950;2024-03-23T11:53:14;12.23;;;2.83;;
1136;SDS011;557;48.466;7.950;2024-03-23T11:55:42;3.80;;;2.77;;
1136;SDS011;557;48.466;7.950;2024-03-23T11:58:10;6.60;;;3.67;;
1136;SDS011;557;48.466;7.950;2024-03-23T12:00:36;5.30;;;3.50;;
1136;SDS011;557;48.466;7.950;2024-03-23T12:03:03;6.40;;;3.87;;
1136;SDS011;557;48.466;7.950;2024-03-23T12:05:32;6.97;;;4.17;;
1136;SDS011;557;48.466;7.950;2024-03-23T12:08:14;6.10;;;4.37;;
1136;SDS011;557;48.466;7.950;2024-03-23T12:10:43;12.83;;;3.83;;
1136;SDS011;557;48.466;7.950;2024-03-23T12:13:11;6.53;;;3.60;;
1136;SDS011;557;48.466;7.950;2024-03-23T12:15:37;5.90;;;3.67;;
1136;SDS011;557;48.466;7.950;2024-03-23T12:18:07;7.23;;;4.23;;
1136;SDS011;557;48.466;7.950;2024-03-23T12:20:36;7.60;;;4.00;;
1136;SDS011;557;48.466;7.950;2024-03-23T12:23:07;5.60;;;3.40;;
1136;SDS011;557;48.466;7.950;2024-03-23T12:25:34;7.93;;;3.83;;
1136;SDS011;557;48.466;7.950;2024-03-23T12:28:02;6.07;;;4.20;;
1136;SDS011;557;48.466;7.950;2024-03-23T12:30:28;6.57;;;3.90;;
1136;SDS011;557;48.466;7.950;2024-03-23T12:32:55;7.27;;;3.60;;
1136;SDS011;557;48.466;7.950;2024-03-23T12:35:21;6.37;;;4.13;;
1136;SDS011;557;48.466;7.950;2024-03-23T12:37:50;9.80;;;5.20;;
1136;SDS011;557;48.466;7.950;2024-03-23T12:40:16;6.57;;;4.60;;
1136;SDS011;557;48.466;7.950;2024-03-23T12:42:42;5.20;;;4.00;;
1136;SDS011;557;48.466;7.950;2024-03-23T12:45:08;6.70;;;4.93;;
1136;SDS011;557;48.466;7.950;2024-03-23T12:47:35;4.70;;;4.20;;
1136;SDS011;557;48.466;7.950;2024-03-23T12:50:02;10.00;;;5.17;;
1136;SDS011;557;48.466;7.950;2024-03-23T12:52:29;9.17;;;5.70;;
1136;SDS011;557;48.466;7.950;2024-03-23T12:54:57;6.83;;;5.00;;
1136;SDS011;557;48.466;7.950;2024-03-23T12:57:23;6.13;;;5.60;;
1136;SDS011;557;48.466;7.950;2024-03-23T12:59:50;6.40;;;5.80;;
1136;SDS011;557;48.466;7.950;2024-03-23T13:02:17;8.83;;;6.23;;
1136;SDS011;557;48.466;7.950;2024-03-23T13:04:45;6.70;;;6.30;;
1136;SDS011;557;48.466;7.950;2024-03-23T13:07:12;6.50;;;6.10;;
1136;SDS011;557;48.466;7.950;2024-03-23T13:09:42;7.67;;;7.10;;
1136;SDS011;557;48.466;7.950;2024-03-23T13:12:10;8.30;;;7.80;;
1136;SDS011;557;48.466;7.950;2024-03-23T13:14:44;9.13;;;8.50;;
1136;SDS011;557;48.466;7.950;2024-03-23T13:17:10;10.13;;;9.20;;
1136;SDS011;557;48.466;7.950;2024-03-23T13:19:36;10.33;;;9.70;;
1136;SDS011;557;48.466;7.950;2024-03-23T13:22:03;10.10;;;9.60;;
1136;SDS011;557;48.466;7.950;2024-03-23T13:24:30;10.50;;;9.90;;
1136;SDS011;557;48.466;7.950;2024-03-23T13:26:57;10.90;;;10.27;;
1136;SDS011;557;48.466;7.950;2024-03-23T13:29:25;10.47;;;9.67;;
1136;SDS011;557;48.466;7.950;2024-03-23T13:31:51;10.30;;;9.70;;
1136;SDS011;557;48.466;7.950;2024-03-23T13:34:18;10.33;;;9.40;;
1136;SDS011;557;48.466;7.950;2024-03-23T13:36:45;9.47;;;8.97;;
1136;SDS011;557;48.466;7.950;2024-03-23T13:39:12;9.17;;;8.40;;
1136;SDS011;557;48.466;7.950;2024-03-23T13:41:40;6.40;;;5.80;;
1136;SDS011;557;48.466;7.950;2024-03-23T13:44:08;6.93;;;6.23;;
1136;SDS011;557;48.466;7.950;2024-03-23T13:46:37;5.53;;;5.13;;
1136;SDS011;557;48.466;7.950;2024-03-23T13:49:04;5.37;;;4.87;;
1136;SDS011;557;48.466;7.950;2024-03-23T13:51:30;6.07;;;5.47;;
1136;SDS011;557;48.466;7.950;2024-03-23T13:53:57;6.57;;;5.97;;
1136;SDS011;557;48.466;7.950;2024-03-23T13:56:26;7.20;;;6.70;;
1136;SDS011;557;48.466;7.950;2024-03-23T13:58:53;7.60;;;7.20;;
1136;SDS011;557;48.466;7.950;2024-03-23T14:01:19;7.90;;;7.37;;
1136;SDS011;557;48.466;7.950;2024-03-23T14:03:47;8.47;;;7.87;;
1136;SDS011;557;48.466;7.950;2024-03-23T14:06:13;8.90;;;8.10;;
1136;SDS011;557;48.466;7.950;2024-03-23T14:08:40;9.00;;;8.50;;
1136;SDS011;557;48.466;7.950;2024-03-23T14:11:07;9.73;;;8.90;;
1136;SDS011;557;48.466;7.950;2024-03-23T14:13:34;9.87;;;9.37;;
1136;SDS011;557;48.466;7.950;2024-03-23T14:16:01;9.20;;;8.67;;
1136;SDS011;557;48.466;7.950;2024-03-23T14:18:28;8.90;;;8.40;;
1136;SDS011;557;48.466;7.950;2024-03-23T14:20:57;9.00;;;8.40;;
1136;SDS011;557;48.466;7.950;2024-03-23T14:23:25;7.83;;;7.43;;
1136;SDS011;557;48.466;7.950;2024-03-23T14:25:54;7.90;;;7.50;;
1136;SDS011;557;48.466;7.950;2024-03-23T14:28:21;7.27;;;6.87;;
1136;SDS011;557;48.466;7.950;2024-03-23T14:30:47;6.73;;;6.43;;
1136;SDS011;557;48.466;7.950;2024-03-23T14:33:14;7.77;;;7.30;;
1136;SDS011;557;48.466;7.950;2024-03-23T14:35:40;7.20;;;6.90;;
1136;SDS011;557;48.466;7.950;2024-03-23T14:38:09;7.83;;;7.43;;
1136;SDS011;557;48.466;7.950;2024-03-23T14:40:35;7.60;;;7.30;;
1136;SDS011;557;48.466;7.950;2024-03-23T14:43:02;8.10;;;7.70;;
1136;SDS011;557;48.466;7.950;2024-03-23T14:45:27;8.30;;;7.80;;
1136;SDS011;557;48.466;7.950;2024-03-23T14:47:54;8.00;;;7.70;;
1136;SDS011;557;48.466;7.950;2024-03-23T14:50:20;8.50;;;8.10;;
1136;SDS011;557;48.466;7.950;2024-03-23T14:52:47;8.57;;;8.07;;
1136;SDS011;557;48.466;7.950;2024-03-23T14:55:14;8.10;;;7.60;;
1136;SDS011;557;48.466;7.950;2024-03-23T14:57:42;7.70;;;7.40;;
1136;SDS011;557;48.466;7.950;2024-03-23T15:00:08;8.53;;;7.97;;
1136;SDS011;557;48.466;7.950;2024-03-23T15:06:20;15.77;;;9.40;;
1136;SDS011;557;48.466;7.950;2024-03-23T15:08:47;8.50;;;8.00;;
1136;SDS011;557;48.466;7.950;2024-03-23T15:11:15;6.87;;;6.57;;
1136;SDS011;557;48.466;7.950;2024-03-23T15:13:44;6.80;;;6.40;;
1136;SDS011;557;48.466;7.950;2024-03-23T15:16:10;6.70;;;6.30;;
1136;SDS011;557;48.466;7.950;2024-03-23T15:18:37;6.77;;;6.47;;
1136;SDS011;557;48.466;7.950;2024-03-23T15:21:04;7.53;;;7.10;;
1136;SDS011;557;48.466;7.950;2024-03-23T15:23:32;7.50;;;7.07;;
1136;SDS011;557;48.466;7.950;2024-03-23T15:25:58;6.90;;;6.50;;
1136;SDS011;557;48.466;7.950;2024-03-23T15:28:28;6.80;;;6.30;;
1136;SDS011;557;48.466;7.950;2024-03-23T15:31:03;7.07;;;6.57;;
1136;SDS011;557;48.466;7.950;2024-03-23T15:33:30;6.80;;;6.27;;
1136;SDS011;557;48.466;7.950;2024-03-23T15:35:58;5.87;;;5.57;;
1136;SDS011;557;48.466;7.950;2024-03-23T15:38:25;6.57;;;6.00;;
1136;SDS011;557;48.466;7.950;2024-03-23T15:40:51;5.73;;;5.20;;
1136;SDS011;557;48.466;7.950;2024-03-23T15:43:18;6.10;;;5.80;;
1136;SDS011;557;48.466;7.950;2024-03-23T15:45:53;6.10;;;5.80;;
1136;SDS011;557;48.466;7.950;2024-03-23T15:48:20;5.90;;;5.60;;
1136;SDS011;557;48.466;7.950;2024-03-23T15:50:50;6.07;;;5.77;;
1136;SDS011;557;48.466;7.950;2024-03-23T15:53:18;6.77;;;6.43;;
1136;SDS011;557;48.466;7.950;2024-03-23T15:55:44;6.23;;;5.80;;
1136;SDS011;557;48.466;7.950;2024-03-23T15:58:11;6.13;;;5.80;;
1136;SDS011;557;48.466;7.950;2024-03-23T16:00:37;5.73;;;5.43;;
1136;SDS011;557;48.466;7.950;2024-03-23T16:03:05;6.20;;;5.90;;
1136;SDS011;557;48.466;7.950;2024-03-23T16:05:32;6.03;;;5.73;;
1136;SDS011;557;48.466;7.950;2024-03-23T16:07:59;6.27;;;5.97;;
1136;SDS011;557;48.466;7.950;2024-03-23T16:10:24;7.13;;;6.63;;
1136;SDS011;557;48.466;7.950;2024-03-23T16:12:51;6.93;;;6.40;;
1136;SDS011;557;48.466;7.950;2024-03-23T16:15:17;6.73;;;6.43;;
1136;SDS011;557;48.466;7.950;2024-03-23T16:17:44;6.90;;;6.50;;
1136;SDS011;557;48.466;7.950;2024-03-23T16:20:12;7.03;;;6.63;;
1136;SDS011;557;48.466;7.950;2024-03-23T16:22:39;6.50;;;6.10;;
1136;SDS011;557;48.466;7.950;2024-03-23T16:25:05;5.67;;;5.37;;
1136;SDS011;557;48.466;7.950;2024-03-23T16:27:32;5.77;;;5.47;;